Time;durP1;ratioP1;P1;durP2;ratioP2;P2;SDS_P1;SDS_P2;PMS_P1;PMS_P2;Temp;Humidity;BMP_temperature;BMP_pressure;BME280_temperature;BME280_humidity;BME280_pressure;Samples;Min_cycle;Max_cycle;Signal;HPM_P1;HPM_P2
2021/03/09 00:01:07;;;;;;;0.00;0.00;;;4.60;99.90;;;;;;6215472;23;20382;-71
2021/03/09 00:03:34;;;;;;;0.00;0.00;;;4.60;99.90;;;;;;6214962;23;20398;-71
2021/03/09 00:06:00;;;;;;;0.00;0.00;;;4.60;99.90;;;;;;6214403;23;20368;-70
2021/03/09 00:08:26;;;;;;;0.00;0.00;;;4.60;99.90;;;;;;6214568;23;20378;-70
2021/03/09 00:10:52;;;;;;;0.00;0.00;;;4.60;99.90;;;;;;6214783;23;20483;-69
2021/03/09 00:13:18;;;;;;;0.00;0.00;;;4.50;99.90;;;;;;6214270;23;20854;-70
2021/03/09 00:15:44;;;;;;;0.00;0.00;;;4.60;99.90;;;;;;6214005;23;20383;-70
2021/03/09 00:18:11;;;;;;;0.00;0.00;;;4.50;99.90;;;;;;6214842;23;20376;-69
2021/03/09 00:20:38;;;;;;;0.00;0.00;;;4.50;99.90;;;;;;6214493;23;20372;-69
2021/03/09 00:23:05;;;;;;;0.00;0.00;;;4.50;99.90;;;;;;6214812;23;20375;-70
2021/03/09 00:25:31;;;;;;;0.00;0.00;;;4.50;99.90;;;;;;6214141;23;20467;-70
2021/03/09 00:27:57;;;;;;;0.00;0.00;;;4.50;99.90;;;;;;6214281;23;20379;-70
2021/03/09 00:30:24;;;;;;;0.00;0.00;;;4.40;99.90;;;;;;6214543;23;20371;-69
2021/03/09 00:32:50;;;;;;;0.00;0.00;;;4.50;99.90;;;;;;6214445;23;20445;-69
2021/03/09 00:35:16;;;;;;;0.00;0.00;;;4.40;99.90;;;;;;6214116;23;20388;-70
2021/03/09 00:37:43;;;;;;;0.00;0.00;;;4.20;99.90;;;;;;6214385;23;20375;-69
2021/03/09 00:40:10;;;;;;;0.00;0.00;;;4.30;99.90;;;;;;6214370;23;20380;-69
2021/03/09 00:42:36;;;;;;;0.00;0.00;;;4.20;99.90;;;;;;6214340;23;20699;-70
2021/03/09 00:45:03;;;;;;;0.00;0.00;;;4.20;99.90;;;;;;6214272;23;20742;-69
2021/03/09 00:47:29;;;;;;;0.00;0.00;;;4.20;99.90;;;;;;6214467;23;20639;-69
2021/03/09 00:49:55;;;;;;;0.00;0.00;;;4.20;99.90;;;;;;6214121;23;20379;-70
2021/03/09 00:52:21;;;;;;;0.00;0.00;;;4.30;99.90;;;;;;6214405;23;20411;-70
2021/03/09 00:54:48;;;;;;;0.00;0.00;;;4.30;99.90;;;;;;6213522;23;20418;-70
2021/03/09 00:57:14;;;;;;;0.00;0.00;;;4.40;99.90;;;;;;6213994;23;20873;-70
2021/03/09 00:59:40;;;;;;;0.00;0.00;;;4.40;99.90;;;;;;6213982;23;20371;-69
2021/03/09 01:02:06;;;;;;;0.00;0.00;;;4.40;99.90;;;;;;6213993;23;20847;-69
2021/03/09 01:04:32;;;;;;;0.00;0.00;;;4.30;99.90;;;;;;6213750;23;20375;-71
2021/03/09 01:06:58;;;;;;;0.00;0.00;;;4.20;99.90;;;;;;6214446;23;20387;-70
2021/03/09 01:09:24;;;;;;;0.00;0.00;;;4.10;99.90;;;;;;6214716;23;20375;-70
2021/03/09 01:11:51;;;;;;;0.00;0.00;;;4.10;99.90;;;;;;6213662;23;20379;-70
2021/03/09 01:14:18;;;;;;;0.00;0.00;;;4.20;99.90;;;;;;6213760;23;20718;-69
2021/03/09 01:16:44;;;;;;;0.00;0.00;;;4.20;99.90;;;;;;6213516;23;20688;-70
2021/03/09 01:19:10;;;;;;;0.00;0.00;;;4.20;99.90;;;;;;6214078;23;20380;-70
2021/03/09 01:21:36;;;;;;;0.00;0.00;;;4.20;99.90;;;;;;6214035;23;20380;-69
2021/03/09 01:24:02;;;;;;;0.00;0.00;;;4.30;99.90;;;;;;6214010;23;20771;-70
2021/03/09 01:26:29;;;;;;;0.00;0.00;;;4.30;99.90;;;;;;6213742;23;20434;-70
2021/03/09 01:28:56;;;;;;;0.00;0.00;;;4.40;99.90;;;;;;6213919;23;20458;-70
2021/03/09 01:31:22;;;;;;;0.00;0.00;;;4.40;99.90;;;;;;6214045;23;20383;-70
2021/03/09 01:33:48;;;;;;;0.00;0.00;;;4.30;99.90;;;;;;6213720;23;20698;-69
2021/03/09 01:36:14;;;;;;;0.00;0.00;;;4.30;99.90;;;;;;6213612;23;20724;-70
2021/03/09 01:38:40;;;;;;;0.00;0.00;;;4.20;99.90;;;;;;6213343;23;20379;-70
2021/03/09 01:41:06;;;;;;;0.00;0.00;;;4.20;99.90;;;;;;6214604;23;20386;-71
2021/03/09 01:43:33;;;;;;;0.00;0.00;;;4.10;99.90;;;;;;6214273;23;20411;-71
2021/03/09 01:46:00;;;;;;;0.00;0.00;;;4.00;99.90;;;;;;6213504;23;20386;-70
2021/03/09 01:48:31;;;;;;;0.00;0.00;;;4.10;99.90;;;;;;6213921;23;20371;-70
2021/03/09 01:50:57;;;;;;;0.00;0.00;;;4.00;99.90;;;;;;6213968;23;20379;-70
2021/03/09 01:53:23;;;;;;;0.00;0.00;;;3.90;99.90;;;;;;6214608;23;20427;-71
2021/03/09 01:55:49;;;;;;;0.00;0.00;;;3.90;99.90;;;;;;6212873;23;20387;-71
2021/03/09 01:58:18;;;;;;;0.00;0.00;;;4.00;99.90;;;;;;6213796;23;20676;-70
2021/03/09 02:00:44;;;;;;;0.00;0.00;;;4.00;99.90;;;;;;6213705;23;20376;-70
2021/03/09 02:03:11;;;;;;;0.00;0.00;;;4.00;99.90;;;;;;6213513;23;20375;-70
2021/03/09 02:05:37;;;;;;;0.00;0.00;;;4.00;99.90;;;;;;6213906;23;20368;-70
2021/03/09 02:08:04;;;;;;;0.00;0.00;;;4.00;99.90;;;;;;6213217;23;20383;-70
2021/03/09 02:10:32;;;;;;;0.00;0.00;;;4.00;99.90;;;;;;6213587;23;20372;-69
2021/03/09 02:13:11;;;;;;;0.00;0.00;;;4.00;99.90;;;;;;6213143;23;20383;-70
2021/03/09 02:15:43;;;;;;;0.00;0.00;;;4.00;99.90;;;;;;6213305;23;20691;-70
2021/03/09 02:18:20;;;;;;;0.00;0.00;;;4.00;99.90;;;;;;6213512;23;20703;-70
2021/03/09 02:21:12;;;;;;;0.00;0.00;;;4.00;99.90;;;;;;6213331;23;20372;-70
2021/03/09 02:24:18;;;;;;;0.00;0.00;;;3.90;99.90;;;;;;6213571;23;20376;-70
2021/03/09 02:27:21;;;;;;;0.00;0.00;;;4.00;99.90;;;;;;6213052;23;20450;-70
2021/03/09 02:30:03;;;;;;;0.00;0.00;;;3.90;99.90;;;;;;6213021;23;20850;-71
2021/03/09 02:32:34;;;;;;;0.00;0.00;;;3.90;99.90;;;;;;6212924;23;20379;-70
2021/03/09 02:35:02;;;;;;;0.00;0.00;;;3.90;99.90;;;;;;6213128;23;20509;-70
2021/03/09 02:37:34;;;;;;;0.00;0.00;;;3.90;99.90;;;;;;6213254;23;20398;-70
2021/03/09 02:40:03;;;;;;;0.00;0.00;;;3.80;99.90;;;;;;6213311;23;20371;-70
2021/03/09 02:42:35;;;;;;;0.00;0.00;;;3.90;99.90;;;;;;6212971;23;20379;-70
2021/03/09 02:45:03;;;;;;;0.00;0.00;;;3.80;99.90;;;;;;6212990;23;20383;-70
2021/03/09 02:47:31;;;;;;;0.00;0.00;;;3.80;99.90;;;;;;6213212;23;20429;-70
2021/03/09 02:49:59;;;;;;;0.00;0.00;;;3.80;99.90;;;;;;6213372;23;20376;-70
2021/03/09 02:52:27;;;;;;;0.00;0.00;;;3.80;99.90;;;;;;6213295;23;20406;-70
2021/03/09 02:54:54;;;;;;;0.00;0.00;;;3.80;99.90;;;;;;6212434;23;20461;-70
2021/03/09 02:57:21;;;;;;;0.00;0.00;;;3.80;99.90;;;;;;6213541;23;20372;-70
2021/03/09 02:59:49;;;;;;;0.00;0.00;;;3.80;99.90;;;;;;6212848;23;20380;-70
2021/03/09 03:02:19;;;;;;;0.00;0.00;;;3.80;99.90;;;;;;6213289;23;20379;-70
2021/03/09 03:04:49;;;;;;;0.00;0.00;;;3.80;99.90;;;;;;6212549;23;20685;-70
2021/03/09 03:07:16;;;;;;;0.00;0.00;;;3.80;99.90;;;;;;6213151;23;20376;-70
2021/03/09 03:09:44;;;;;;;0.00;0.00;;;3.80;99.90;;;;;;6213028;23;20707;-69
2021/03/09 03:12:13;;;;;;;0.00;0.00;;;3.80;99.90;;;;;;6212298;23;20858;-70
2021/03/09 03:14:41;;;;;;;0.00;0.00;;;3.80;99.90;;;;;;6213281;23;20717;-70
2021/03/09 03:17:08;;;;;;;0.00;0.00;;;3.70;99.90;;;;;;6212697;23;20742;-70
2021/03/09 03:19:36;;;;;;;0.00;0.00;;;3.70;99.90;;;;;;6212644;23;20371;-70
2021/03/09 03:22:03;;;;;;;0.00;0.00;;;3.80;99.90;;;;;;6213431;23;20699;-70
2021/03/09 03:24:30;;;;;;;0.00;0.00;;;3.70;99.90;;;;;;6212860;23;20367;-70
2021/03/09 03:26:58;;;;;;;0.00;0.00;;;3.70;99.90;;;;;;6212622;23;20434;-70
2021/03/09 03:29:24;;;;;;;0.00;0.00;;;3.70;99.90;;;;;;6213075;23;20372;-70
2021/03/09 03:31:51;;;;;;;0.00;0.00;;;3.70;99.90;;;;;;6213084;23;20375;-70
2021/03/09 03:34:17;;;;;;;0.00;0.00;;;3.70;99.90;;;;;;6212742;23;20376;-70
2021/03/09 03:36:45;;;;;;;0.00;0.00;;;3.60;99.90;;;;;;6212837;23;20383;-70
2021/03/09 03:39:13;;;;;;;0.00;0.00;;;3.60;99.90;;;;;;6212499;23;20379;-70
2021/03/09 03:41:39;;;;;;;0.00;0.00;;;3.60;99.90;;;;;;6213042;23;20397;-70
2021/03/09 03:44:06;;;;;;;0.00;0.00;;;3.60;99.90;;;;;;6213102;23;20371;-70
2021/03/09 03:46:32;;;;;;;0.00;0.00;;;3.50;99.90;;;;;;6212622;23;20368;-70
2021/03/09 03:48:58;;;;;;;0.00;0.00;;;3.50;99.90;;;;;;6212825;23;20371;-71
2021/03/09 03:51:30;;;;;;;0.00;0.00;;;3.50;99.90;;;;;;6212403;23;20862;-70
2021/03/09 03:54:07;;;;;;;0.00;0.00;;;3.60;99.90;;;;;;6213040;23;20391;-70
2021/03/09 03:56:41;;;;;;;0.00;0.00;;;3.50;99.90;;;;;;6212537;23;20383;-70
2021/03/09 03:59:12;;;;;;;0.00;0.00;;;3.50;99.90;;;;;;6213621;23;20382;-70
2021/03/09 04:01:40;;;;;;;0.00;0.00;;;3.40;99.90;;;;;;6213142;23;20386;-70
2021/03/09 04:04:09;;;;;;;0.00;0.00;;;3.40;99.90;;;;;;6213394;23;20375;-70
2021/03/09 04:06:37;;;;;;;0.00;0.00;;;3.40;99.90;;;;;;6213129;23;20383;-70
2021/03/09 04:09:06;;;;;;;0.00;0.00;;;3.50;99.90;;;;;;6212605;23;20858;-71
2021/03/09 04:11:33;;;;;;;0.00;0.00;;;3.50;99.90;;;;;;6212994;23;20384;-69
2021/03/09 04:14:01;;;;;;;0.00;0.00;;;3.50;99.90;;;;;;6212197;23;20376;-69
2021/03/09 04:16:27;;;;;;;0.00;0.00;;;3.50;99.90;;;;;;6212698;23;20391;-69
2021/03/09 04:18:54;;;;;;;0.00;0.00;;;3.40;99.90;;;;;;6212567;23;20379;-69
2021/03/09 04:21:21;;;;;;;0.00;0.00;;;3.40;99.90;;;;;;6213559;23;20731;-69
2021/03/09 04:23:48;;;;;;;0.00;0.00;;;3.40;99.90;;;;;;6212628;23;20438;-67
2021/03/09 04:26:16;;;;;;;0.00;0.00;;;3.50;99.90;;;;;;6212082;23;20838;-70
2021/03/09 04:28:42;;;;;;;0.00;0.00;;;3.40;99.90;;;;;;6210305;23;20375;-70
2021/03/09 04:31:09;;;;;;;0.00;0.00;;;3.50;99.90;;;;;;6213620;23;20882;-69
2021/03/09 04:33:36;;;;;;;0.00;0.00;;;3.30;99.90;;;;;;6215933;23;20730;-70
2021/03/09 04:36:04;;;;;;;0.00;0.00;;;3.50;99.90;;;;;;6213796;23;20433;-68
2021/03/09 04:38:31;;;;;;;0.00;0.00;;;3.40;99.90;;;;;;6214617;23;20420;-70
2021/03/09 04:40:57;;;;;;;0.00;0.00;;;3.30;99.90;;;;;;6214017;23;20702;-70
2021/03/09 04:43:25;;;;;;;0.00;0.00;;;3.40;99.90;;;;;;6214604;23;20385;-70
2021/03/09 04:45:52;;;;;;;0.00;0.00;;;3.40;99.90;;;;;;6214204;23;20425;-69
2021/03/09 04:48:18;;;;;;;0.00;0.00;;;3.40;99.90;;;;;;6214302;23;20379;-69
2021/03/09 04:50:50;;;;;;;0.00;0.00;;;3.40;99.90;;;;;;6214435;23;20398;-70
2021/03/09 04:53:16;;;;;;;0.00;0.00;;;3.50;99.90;;;;;;6214420;23;20376;-70
2021/03/09 04:55:42;;;;;;;0.00;0.00;;;3.40;99.90;;;;;;6213723;23;20697;-69
2021/03/09 04:58:08;;;;;;;0.00;0.00;;;3.30;99.90;;;;;;6213863;23;20384;-69
2021/03/09 05:00:35;;;;;;;0.00;0.00;;;3.30;99.90;;;;;;6214602;23;20382;-70
2021/03/09 05:03:01;;;;;;;0.00;0.00;;;3.30;1.00;;;;;;6214273;23;20375;-67
2021/03/09 05:05:28;;;;;;;0.00;0.00;;;3.40;1.00;;;;;;6214050;23;20530;-69
2021/03/09 05:07:54;;;;;;;0.00;0.00;;;3.40;1.00;;;;;;6214742;23;20375;-69
2021/03/09 05:10:20;;;;;;;0.00;0.00;;;3.40;1.00;;;;;;6213969;23;20407;-69
2021/03/09 05:12:47;;;;;;;0.00;0.00;;;3.40;1.00;;;;;;6213991;23;20876;-69
2021/03/09 05:15:14;;;;;;;0.00;0.00;;;3.30;1.00;;;;;;6213672;23;20765;-71
2021/03/09 05:17:41;;;;;;;0.00;0.00;;;3.30;1.00;;;;;;6213974;23;20376;-69
2021/03/09 05:20:10;;;;;;;0.00;0.00;;;3.30;1.00;;;;;;6214140;23;20951;-69
2021/03/09 05:22:36;;;;;;;0.00;0.00;;;3.30;1.00;;;;;;6213746;23;20862;-70
2021/03/09 05:25:03;;;;;;;0.00;0.00;;;3.20;1.00;;;;;;6210933;23;20383;-70
2021/03/09 05:27:29;;;;;;;0.00;0.00;;;3.20;1.00;;;;;;6213922;23;20371;-70
2021/03/09 05:29:55;;;;;;;0.00;0.00;;;3.20;1.00;;;;;;6214046;23;20376;-69
2021/03/09 05:32:21;;;;;;;0.00;0.00;;;3.20;1.00;;;;;;6213992;23;20372;-70
2021/03/09 05:34:48;;;;;;;0.00;0.00;;;3.10;1.00;;;;;;6214181;23;20442;-73
2021/03/09 05:37:14;;;;;;;0.00;0.00;;;3.10;1.00;;;;;;6212078;23;20680;-70
2021/03/09 05:39:40;;;;;;;0.00;0.00;;;3.20;1.00;;;;;;6213591;23;20704;-71
2021/03/09 05:42:08;;;;;;;0.00;0.00;;;3.20;1.00;;;;;;6212307;23;20398;-71
2021/03/09 05:44:37;;;;;;;0.00;0.00;;;3.10;1.00;;;;;;6212026;23;20434;-72
2021/03/09 05:47:04;;;;;;;0.00;0.00;;;3.20;1.00;;;;;;6210833;23;20379;-71
2021/03/09 05:49:31;;;;;;;0.00;0.00;;;3.20;1.00;;;;;;6213262;23;20486;-71
2021/03/09 05:51:59;;;;;;;0.00;0.00;;;3.20;1.00;;;;;;6213731;23;20375;-71
2021/03/09 05:54:25;;;;;;;0.00;0.00;;;3.30;1.00;;;;;;6214659;23;20376;-70
2021/03/09 05:56:51;;;;;;;0.00;0.00;;;3.20;1.00;;;;;;6212929;23;20384;-71
2021/03/09 05:59:18;;;;;;;0.00;0.00;;;3.30;1.00;;;;;;6212850;23;20763;-70
2021/03/09 06:01:44;;;;;;;0.00;0.00;;;3.30;1.00;;;;;;6213614;23;20383;-68
2021/03/09 06:04:11;;;;;;;0.00;0.00;;;3.20;1.00;;;;;;6213437;23;20396;-69
2021/03/09 06:06:37;;;;;;;0.00;0.00;;;3.20;1.00;;;;;;6212860;23;20372;-69
2021/03/09 06:09:38;;;;;;;0.00;0.00;;;3.20;1.00;;;;;;6213085;23;20429;-69
2021/03/09 06:12:09;;;;;;;0.00;0.00;;;3.10;1.00;;;;;;6213086;23;20372;-70
2021/03/09 06:14:38;;;;;;;0.00;0.00;;;3.10;1.00;;;;;;6213514;23;20371;-68
2021/03/09 06:17:05;;;;;;;0.00;0.00;;;3.10;1.00;;;;;;6213283;23;20399;-68
2021/03/09 06:19:41;;;;;;;0.00;0.00;;;3.20;1.00;;;;;;6213297;23;20406;-68
2021/03/09 06:22:07;;;;;;;0.00;0.00;;;3.20;1.00;;;;;;6213239;23;20372;-67
2021/03/09 06:24:33;;;;;;;0.00;0.00;;;3.20;1.00;;;;;;6210351;23;20372;-70
2021/03/09 06:27:00;;;;;;;0.00;0.00;;;3.20;1.00;;;;;;6212718;23;20379;-71
2021/03/09 06:29:27;;;;;;;0.00;0.00;;;3.30;1.00;;;;;;6212708;23;20415;-70
2021/03/09 06:32:01;;;;;;;0.00;0.00;;;3.20;1.00;;;;;;6213489;23;20390;-70
2021/03/09 06:34:29;;;;;;;0.00;0.00;;;3.20;1.00;;;;;;6212991;23;20382;-69
2021/03/09 06:37:13;;;;;;;0.00;0.00;;;3.10;1.00;;;;;;6212515;23;20429;-70
2021/03/09 06:40:00;;;;;;;0.00;0.00;;;3.10;1.00;;;;;;6213003;23;20376;-71
2021/03/09 06:42:33;;;;;;;0.00;0.00;;;3.00;1.00;;;;;;6212931;23;20407;-71
2021/03/09 06:45:01;;;;;;;0.00;0.00;;;3.10;1.00;;;;;;6212724;23;20390;-71
2021/03/09 06:47:41;;;;;;;0.00;0.00;;;3.10;1.00;;;;;;6212740;23;20409;-72
2021/03/09 06:50:11;;;;;;;0.00;0.00;;;3.10;1.00;;;;;;6213195;23;20746;-73
2021/03/09 06:52:38;;;;;;;0.00;0.00;;;3.10;1.00;;;;;;6213464;23;20379;-72
2021/03/09 06:55:06;;;;;;;0.00;0.00;;;3.00;1.00;;;;;;6212120;23;20391;-69
2021/03/09 06:57:33;;;;;;;0.00;0.00;;;3.10;1.00;;;;;;6213794;23;20453;-73
2021/03/09 06:59:59;;;;;;;0.00;0.00;;;3.10;1.00;;;;;;6213227;23;20379;-70
2021/03/09 07:02:28;;;;;;;0.00;0.00;;;3.20;1.00;;;;;;6212941;23;20399;-71
2021/03/09 07:05:01;;;;;;;0.00;0.00;;;3.40;1.00;;;;;;6210518;23;20474;-67
2021/03/09 07:07:31;;;;;;;0.00;0.00;;;3.50;1.00;;;;;;6212509;23;20375;-68
2021/03/09 07:10:00;;;;;;;0.00;0.00;;;3.50;1.00;;;;;;6212443;23;20849;-68
2021/03/09 07:12:27;;;;;;;0.00;0.00;;;3.40;1.00;;;;;;6212232;23;20410;-69
2021/03/09 07:14:56;;;;;;;0.00;0.00;;;3.40;1.00;;;;;;6212296;23;20391;-69
2021/03/09 07:17:24;;;;;;;0.00;0.00;;;3.30;1.00;;;;;;6212254;23;20750;-69
2021/03/09 07:19:52;;;;;;;0.00;0.00;;;3.30;1.00;;;;;;6212462;23;20376;-68
2021/03/09 07:22:22;;;;;;;0.00;0.00;;;3.30;1.00;;;;;;6212467;23;20389;-69
2021/03/09 07:25:00;;;;;;;0.00;0.00;;;3.30;1.00;;;;;;6212135;23;20379;-70
2021/03/09 07:27:36;;;;;;;0.00;0.00;;;3.20;1.00;;;;;;6212624;23;20375;-69
2021/03/09 07:30:05;;;;;;;0.00;0.00;;;3.20;1.00;;;;;;6212141;23;20406;-70
2021/03/09 07:32:32;;;;;;;0.00;0.00;;;3.20;1.00;;;;;;6212479;23;20398;-71
2021/03/09 07:35:00;;;;;;;0.00;0.00;;;3.20;1.00;;;;;;6211373;23;20965;-71
2021/03/09 07:37:26;;;;;;;0.00;0.00;;;3.10;1.00;;;;;;6212469;23;20390;-70
2021/03/09 07:39:53;;;;;;;0.00;0.00;;;3.20;1.00;;;;;;6212141;23;20680;-71
2021/03/09 07:42:21;;;;;;;0.00;0.00;;;3.10;1.00;;;;;;6211911;23;20706;-70
2021/03/09 07:44:49;;;;;;;0.00;0.00;;;3.30;1.00;;;;;;6212653;23;20383;-70
2021/03/09 07:47:19;;;;;;;0.00;0.00;;;3.20;1.00;;;;;;6212497;23;20378;-70
2021/03/09 07:49:46;;;;;;;0.00;0.00;;;3.20;1.00;;;;;;6212535;23;20850;-70
2021/03/09 07:52:16;;;;;;;0.00;0.00;;;3.20;1.00;;;;;;6213152;23;20375;-73
2021/03/09 07:55:27;;;;;;;0.00;0.00;;;3.20;1.00;;;;;;6212733;23;20375;-73
2021/03/09 07:58:17;;;;;;;0.00;0.00;;;3.00;1.00;;;;;;6212723;23;20376;-68
2021/03/09 08:00:56;;;;;;;0.00;0.00;;;3.20;1.00;;;;;;6212604;23;20830;-67
2021/03/09 08:03:26;;;;;;;0.00;0.00;;;3.10;1.00;;;;;;6212539;23;20380;-73
2021/03/09 08:05:57;;;;;;;0.00;0.00;;;3.10;1.00;;;;;;6213005;23;20386;-73
2021/03/09 08:08:45;;;;;;;0.00;0.00;;;3.10;1.00;;;;;;6214296;23;20771;-72
2021/03/09 08:11:37;;;;;;;0.00;0.00;;;3.10;1.00;;;;;;6213668;23;20849;-72
2021/03/09 08:14:23;;;;;;;0.00;0.00;;;3.10;1.00;;;;;;6213702;23;20483;-73
2021/03/09 08:16:50;;;;;;;0.00;0.00;;;3.30;1.00;;;;;;6212630;23;20939;-74
2021/03/09 08:19:40;;;;;;;0.00;0.00;;;3.10;1.00;;;;;;6214146;23;20466;-73
2021/03/09 08:22:07;;;;;;;0.00;0.00;;;3.10;1.00;;;;;;6213627;23;20707;-73
2021/03/09 08:24:53;;;;;;;0.00;0.00;;;3.20;1.00;;;;;;6213521;23;20858;-73
2021/03/09 08:27:37;;;;;;;0.00;0.00;;;3.20;1.00;;;;;;6213602;23;20379;-70
2021/03/09 08:30:28;;;;;;;0.00;0.00;;;3.30;1.00;;;;;;6213960;23;20422;-68
2021/03/09 08:33:15;;;;;;;0.00;0.00;;;3.40;1.00;;;;;;6214286;23;20470;-69
2021/03/09 08:35:42;;;;;;;0.00;0.00;;;3.40;1.00;;;;;;6212467;23;20508;-69
2021/03/09 08:38:13;;;;;;;0.00;0.00;;;3.30;1.00;;;;;;6213900;23;20375;-69
2021/03/09 08:40:57;;;;;;;0.00;0.00;;;3.40;1.00;;;;;;6213273;23;20380;-68
2021/03/09 08:43:23;;;;;;;0.00;0.00;;;3.30;1.00;;;;;;6213876;23;20371;-70
2021/03/09 08:45:56;;;;;;;0.00;0.00;;;3.40;1.00;;;;;;6213039;23;20372;-70
2021/03/09 08:48:47;;;;;;;0.00;0.00;;;3.30;1.00;;;;;;6213435;23;20905;-68
2021/03/09 08:51:45;;;;;;;0.00;0.00;;;3.40;1.00;;;;;;6213653;23;20372;-69
2021/03/09 08:54:19;;;;;;;0.00;0.00;;;3.40;1.00;;;;;;6121225;23;20415;-69
2021/03/09 08:56:45;;;;;;;0.00;0.00;;;3.50;1.00;;;;;;6196381;23;20402;-70
2021/03/09 08:59:11;;;;;;;0.00;0.00;;;3.50;1.00;;;;;;6213328;23;20383;-69
2021/03/09 09:01:38;;;;;;;0.00;0.00;;;3.60;1.00;;;;;;6213704;23;20400;-69
2021/03/09 09:04:14;;;;;;;0.00;0.00;;;3.60;1.00;;;;;;6213253;23;20904;-68
2021/03/09 09:06:40;;;;;;;0.00;0.00;;;3.60;1.00;;;;;;6212837;23;20383;-68
2021/03/09 09:09:07;;;;;;;0.00;0.00;;;3.50;1.00;;;;;;6213403;23;20372;-69
2021/03/09 09:11:33;;;;;;;0.00;0.00;;;3.50;1.00;;;;;;6213836;23;20378;-68
2021/03/09 09:14:14;;;;;;;0.00;0.00;;;3.50;1.00;;;;;;6213203;23;20383;-67
2021/03/09 09:16:40;;;;;;;0.00;0.00;;;3.50;1.00;;;;;;6213154;23;20463;-70
2021/03/09 09:19:06;;;;;;;0.00;0.00;;;3.50;1.00;;;;;;6213727;23;20694;-71
2021/03/09 09:21:43;;;;;;;0.00;0.00;;;3.50;1.00;;;;;;6213652;23;20383;-69
2021/03/09 09:24:20;;;;;;;0.00;0.00;;;3.60;1.00;;;;;;6213340;23;20375;-68
2021/03/09 09:26:57;;;;;;;0.00;0.00;;;3.50;1.00;;;;;;6213273;23;20375;-68
2021/03/09 09:29:24;;;;;;;0.00;0.00;;;3.50;1.00;;;;;;6213673;23;20372;-67
2021/03/09 09:31:55;;;;;;;0.00;0.00;;;3.50;1.00;;;;;;6213583;23;20375;-68
2021/03/09 09:34:32;;;;;;;0.00;0.00;;;3.60;1.00;;;;;;6212826;23;21072;-73
2021/03/09 09:36:58;;;;;;;0.00;0.00;;;3.50;1.00;;;;;;6213230;23;20392;-72
2021/03/09 09:39:33;;;;;;;0.00;0.00;;;3.50;1.00;;;;;;6213225;23;20382;-72
2021/03/09 09:41:59;;;;;;;0.00;0.00;;;3.70;1.00;;;;;;6213658;23;20380;-70
2021/03/09 09:44:26;;;;;;;0.00;0.00;;;3.70;1.00;;;;;;6213419;23;20372;-71
2021/03/09 09:46:52;;;;;;;0.00;0.00;;;3.60;1.00;;;;;;6212751;23;20375;-70
2021/03/09 09:49:19;;;;;;;0.00;0.00;;;3.60;1.00;;;;;;6213585;23;20386;-71
2021/03/09 09:51:47;;;;;;;0.00;0.00;;;3.60;1.00;;;;;;6212187;23;20385;-70
2021/03/09 09:54:13;;;;;;;0.00;0.00;;;3.60;1.00;;;;;;6213360;23;20376;-70
2021/03/09 09:56:40;;;;;;;0.00;0.00;;;3.40;1.00;;;;;;6210976;23;20449;-67
2021/03/09 09:59:06;;;;;;;0.00;0.00;;;3.50;1.00;;;;;;6212566;23;20375;-69
2021/03/09 10:01:44;;;;;;;0.00;0.00;;;3.60;1.00;;;;;;6213986;23;20513;-70
2021/03/09 10:04:11;;;;;;;0.00;0.00;;;3.70;1.00;;;;;;6213468;23;20414;-70
2021/03/09 10:06:39;;;;;;;0.00;0.00;;;3.70;1.00;;;;;;6212859;23;20426;-69
2021/03/09 10:09:10;;;;;;;0.00;0.00;;;3.80;1.00;;;;;;6212145;23;20380;-69
2021/03/09 10:11:45;;;;;;;0.00;0.00;;;3.90;1.00;;;;;;6213492;23;20394;-67
2021/03/09 10:14:12;;;;;;;0.00;0.00;;;3.90;1.00;;;;;;6213068;23;20461;-68
2021/03/09 10:16:40;;;;;;;0.00;0.00;;;3.80;1.00;;;;;;6213065;23;20453;-74
2021/03/09 10:19:15;;;;;;;0.00;0.00;;;3.80;1.00;;;;;;6213361;23;20407;-75
2021/03/09 10:21:41;;;;;;;0.00;0.00;;;3.90;1.00;;;;;;6213567;23;20547;-74
2021/03/09 10:24:20;;;;;;;0.00;0.00;;;3.80;1.00;;;;;;6213834;23;20386;-77
2021/03/09 10:26:49;;;;;;;0.00;0.00;;;3.70;1.00;;;;;;6212627;23;20402;-71
2021/03/09 10:29:16;;;;;;;0.00;0.00;;;3.80;1.00;;;;;;6213056;23;20375;-68
2021/03/09 10:31:45;;;;;;;0.00;0.00;;;3.70;1.00;;;;;;6213542;23;20434;-69
2021/03/09 10:34:13;;;;;;;0.00;0.00;;;3.70;1.00;;;;;;6212745;23;20466;-68
2021/03/09 10:36:54;;;;;;;0.00;0.00;;;3.70;1.00;;;;;;6213249;23;20388;-69
2021/03/09 10:39:22;;;;;;;0.00;0.00;;;3.60;1.00;;;;;;6212702;23;20479;-70
2021/03/09 10:41:52;;;;;;;0.00;0.00;;;3.60;1.00;;;;;;6213122;23;20806;-74
2021/03/09 10:44:33;;;;;;;0.00;0.00;;;3.70;1.00;;;;;;6211802;23;20388;-71
2021/03/09 10:47:00;;;;;;;0.00;0.00;;;3.90;1.00;;;;;;6212826;23;20429;-68
2021/03/09 10:49:27;;;;;;;0.00;0.00;;;3.90;1.00;;;;;;6213255;23;20375;-68
2021/03/09 10:52:00;;;;;;;0.00;0.00;;;4.00;1.00;;;;;;6212826;23;20375;-68
2021/03/09 10:54:27;;;;;;;0.00;0.00;;;4.00;1.00;;;;;;6212517;23;20846;-69
2021/03/09 10:56:54;;;;;;;0.00;0.00;;;4.00;1.00;;;;;;6212242;23;20387;-69
2021/03/09 10:59:20;;;;;;;0.00;0.00;;;4.00;1.00;;;;;;6212961;23;20371;-71
2021/03/09 11:01:46;;;;;;;0.00;0.00;;;4.00;1.00;;;;;;6212942;23;20425;-70
2021/03/09 11:04:12;;;;;;;0.00;0.00;;;3.90;1.00;;;;;;6212635;23;20375;-68
2021/03/09 11:06:39;;;;;;;0.00;0.00;;;4.00;1.00;;;;;;6212073;23;20434;-70
2021/03/09 11:09:06;;;;;;;0.00;0.00;;;4.00;1.00;;;;;;6212142;23;20856;-70
2021/03/09 11:11:32;;;;;;;0.00;0.00;;;4.00;1.00;;;;;;6212837;23;20403;-73
2021/03/09 11:13:59;;;;;;;0.00;0.00;;;5.90;1.00;;;;;;6211996;23;20414;-71
2021/03/09 11:16:25;;;;;;;0.00;0.00;;;4.10;1.00;;;;;;6211668;23;20387;-71
2021/03/09 11:18:51;;;;;;;0.00;0.00;;;4.10;1.00;;;;;;6212290;23;20442;-69
2021/03/09 11:21:18;;;;;;;0.00;0.00;;;4.20;1.00;;;;;;6212602;23;20426;-70
2021/03/09 11:24:06;;;;;;;0.00;0.00;;;4.20;1.00;;;;;;6212958;23;20371;-71
2021/03/09 11:26:33;;;;;;;0.00;0.00;;;4.30;1.00;;;;;;6211153;23;20437;-75
2021/03/09 11:29:01;;;;;;;0.00;0.00;;;4.40;1.00;;;;;;6213101;23;20389;-76
2021/03/09 11:31:28;;;;;;;0.00;0.00;;;4.40;1.00;;;;;;6211392;23;20387;-74
2021/03/09 11:33:55;;;;;;;0.00;0.00;;;4.50;1.00;;;;;;6211847;23;20415;-75
2021/03/09 11:39:24;;;;;;;0.00;0.00;;;4.40;1.00;;;;;;6212555;23;20383;-74
2021/03/09 11:42:11;;;;;;;0.00;0.00;;;4.40;1.00;;;;;;6213660;23;20390;-75
2021/03/09 11:44:38;;;;;;;0.00;0.00;;;4.30;1.00;;;;;;6214552;23;20449;-71
2021/03/09 11:47:43;;;;;;;0.00;0.00;;;4.30;1.00;;;;;;6214628;23;20368;-75
2021/03/09 11:50:10;;;;;;;0.00;0.00;;;4.30;1.00;;;;;;6213992;23;20407;-72
2021/03/09 11:52:38;;;;;;;0.00;0.00;;;4.40;1.00;;;;;;6214601;23;20383;-68
2021/03/09 11:55:05;;;;;;;0.00;0.00;;;4.40;1.00;;;;;;6213875;23;20384;-67
2021/03/09 11:57:31;;;;;;;0.00;0.00;;;4.40;1.00;;;;;;6214248;23;20394;-67
2021/03/09 11:59:59;;;;;;;0.00;0.00;;;4.40;1.00;;;;;;6214294;23;20382;-69
2021/03/09 12:02:25;;;;;;;0.00;0.00;;;4.50;1.00;;;;;;6214589;23;20411;-68
2021/03/09 12:04:52;;;;;;;0.00;0.00;;;4.50;1.00;;;;;;6214341;23;20383;-68
2021/03/09 12:07:19;;;;;;;0.00;0.00;;;4.60;1.00;;;;;;6213822;23;20371;-69
2021/03/09 12:09:46;;;;;;;0.00;0.00;;;4.60;1.00;;;;;;6214166;23;20414;-68
2021/03/09 12:12:12;;;;;;;0.00;0.00;;;4.60;1.00;;;;;;6213813;23;20375;-68
2021/03/09 12:14:38;;;;;;;0.00;0.00;;;4.70;1.00;;;;;;6214392;23;20390;-68
2021/03/09 12:17:05;;;;;;;0.00;0.00;;;4.70;1.00;;;;;;6213604;23;20391;-69
2021/03/09 12:19:35;;;;;;;0.00;0.00;;;4.70;1.00;;;;;;6213948;23;20388;-73
2021/03/09 12:22:01;;;;;;;0.00;0.00;;;4.80;1.00;;;;;;6214444;23;20384;-73
2021/03/09 12:24:28;;;;;;;0.00;0.00;;;4.80;1.00;;;;;;6213558;23;20985;-73
2021/03/09 12:26:54;;;;;;;0.00;0.00;;;4.80;1.00;;;;;;6213503;23;20454;-72
2021/03/09 12:29:30;;;;;;;0.00;0.00;;;4.70;1.00;;;;;;6214082;23;20380;-73
2021/03/09 12:31:57;;;;;;;0.00;0.00;;;4.80;1.00;;;;;;6214175;23;20360;-73
2021/03/09 12:34:24;;;;;;;0.00;0.00;;;4.80;1.00;;;;;;6213845;23;20434;-71
2021/03/09 12:36:50;;;;;;;0.00;0.00;;;4.80;1.00;;;;;;6213625;23;20421;-70
2021/03/09 12:39:16;;;;;;;0.00;0.00;;;4.80;1.00;;;;;;6214170;23;20702;-70
2021/03/09 12:41:42;;;;;;;0.00;0.00;;;4.80;1.00;;;;;;6213860;23;20375;-70
2021/03/09 12:44:08;;;;;;;0.00;0.00;;;4.80;1.00;;;;;;6213990;23;20375;-69
2021/03/09 12:46:34;;;;;;;0.00;0.00;;;4.80;1.00;;;;;;6213012;23;20382;-69
2021/03/09 12:49:01;;;;;;;0.00;0.00;;;4.90;1.00;;;;;;6213965;23;20389;-68
2021/03/09 12:51:28;;;;;;;0.00;0.00;;;4.90;1.00;;;;;;6214110;23;20371;-68
2021/03/09 12:53:54;;;;;;;0.00;0.00;;;5.00;1.00;;;;;;6213735;23;20385;-69
2021/03/09 12:56:20;;;;;;;0.00;0.00;;;5.10;1.00;;;;;;6212584;23;20394;-68
2021/03/09 12:58:46;;;;;;;0.00;0.00;;;5.10;1.00;;;;;;6213823;23;20387;-68
2021/03/09 13:01:13;;;;;;;0.00;0.00;;;5.10;1.00;;;;;;6213845;23;20391;-69
2021/03/09 13:03:39;;;;;;;0.00;0.00;;;5.20;1.00;;;;;;6213921;23;20376;-71
2021/03/09 13:06:05;;;;;;;0.00;0.00;;;5.30;1.00;;;;;;6213220;23;20371;-69
2021/03/09 13:08:33;;;;;;;0.00;0.00;;;5.30;1.00;;;;;;6214016;23;20433;-69
2021/03/09 13:10:59;;;;;;;0.00;0.00;;;5.30;1.00;;;;;;6213394;23;20384;-70
2021/03/09 13:13:25;;;;;;;0.00;0.00;;;5.30;1.00;;;;;;6213714;23;20449;-69
2021/03/09 13:15:51;;;;;;;0.00;0.00;;;5.40;1.00;;;;;;6212635;23;20399;-71
2021/03/09 13:18:17;;;;;;;0.00;0.00;;;5.40;1.00;;;;;;6213542;23;20434;-69